NATURA VA

 METAR AND TAF INFORMATION
METAR FOR LICA
ADDS - METARS form results

(1604 UTC 26 March 2019)
Data provider http://aviationweather.gov/metar/data/
 
Forecast for: LICA (LAMEZIA TERME , IT)
Text: TAF LICA 261100Z 2612/2712 26010KT 9999 SCT025
Forecast period: 1200 UTC 26 March 2019 to 1200 UTC 27 March 2019
Forecast type: FROM: standard forecast or significant change
Winds: from the W (260 degrees) at 12 MPH (10 knots; 5.1 m/s)
Visibility: 6 or more miles 10+ km)
Ceiling: at least 12,000 feet AGL
Clouds: scattered clouds at 2500 feet AGL
Weather: no significant weather forecast for this period
Text: TEMPO 2708/2712 4000 TSRA
Forecast period: 0800 to 1200 UTC 27 March 2019
Forecast type: TEMPORARY: The following changes expected for less than half the time period
Visibility: 2.49 miles (4.01 km)
Ceiling: unknown
Clouds: missing
Weather: TSRA  (rain associated with thunderstorm(s))

 AIRPORT MAP

 RUNWAY INFORMATION
Runway 10 Runway length 7920 ft Runway width 148 ft
Runway elevation 20 ft Runway displaced threshold 348 ft Runway heading 99
Runway 28 Runway length 7920 ft Runway width 148 ft
Runway elevation 39 ft Runway displaced threshold 351 ft Runway heading 279

 AIRPORT FREQUENCIES
Type APP Name APP Frequency 118.8 MHZ
Type TWR Name TWR Frequency 119.7 MHZ

 AIRPORT NEAR NAVIGATION AIDS
Type VOR-DME Name Lamezia Terme Frequency 112500 KHZ



Powered by Virtual Airlines Manager [v2.6.2]